Time;durP1;ratioP1;P1;durP2;ratioP2;P2;SDS_P1;SDS_P2;PMS_P1;PMS_P2;Temp;Humidity;BMP_temperature;BMP_pressure;BME280_temperature;BME280_humidity;BME280_pressure;Samples;Min_cycle;Max_cycle;Signal;HPM_P1;HPM_P2
2023/07/01 00:01:51;;;;;;;1999.90;999.90;;;18.00;99.90;;;;;;4920585;29;20095;-71
2023/07/01 00:04:17;;;;;;;1999.90;999.90;;;18.00;99.90;;;;;;4919726;29;20481;-72
2023/07/01 00:06:43;;;;;;;1999.90;999.90;;;18.00;99.90;;;;;;4920404;29;20104;-71
2023/07/01 00:09:10;;;;;;;1999.90;999.90;;;18.10;99.90;;;;;;4919196;29;20508;-70
2023/07/01 00:11:36;;;;;;;1999.90;999.90;;;18.00;99.90;;;;;;4918760;29;20091;-71
2023/07/01 00:14:02;;;;;;;1999.90;999.90;;;18.00;99.90;;;;;;4920595;29;20063;-71
2023/07/01 00:16:27;;;;;;;1999.90;999.90;;;18.00;99.90;;;;;;4903864;29;20404;-71
2023/07/01 00:18:53;;;;;;;1999.90;999.90;;;18.00;99.90;;;;;;4920535;29;20054;-72
2023/07/01 00:21:19;;;;;;;1999.90;999.90;;;18.00;99.90;;;;;;4920227;29;20074;-71
2023/07/01 00:23:45;;;;;;;1999.90;999.90;;;18.00;99.90;;;;;;4918793;29;20052;-71
2023/07/01 00:26:11;;;;;;;1999.90;999.90;;;17.90;99.90;;;;;;4920409;29;20500;-71
2023/07/01 00:28:36;;;;;;;1999.90;999.90;;;17.90;99.90;;;;;;4920106;29;20087;-71
2023/07/01 00:31:02;;;;;;;1999.90;999.90;;;17.90;99.90;;;;;;4920038;29;20051;-71
2023/07/01 00:33:28;;;;;;;1999.90;999.90;;;17.90;99.90;;;;;;4919990;29;20047;-71
2023/07/01 00:35:54;;;;;;;1999.90;999.90;;;17.90;99.90;;;;;;4919841;29;20048;-70
2023/07/01 00:38:19;;;;;;;1999.90;999.90;;;17.90;99.90;;;;;;4918604;29;20044;-71
2023/07/01 00:40:45;;;;;;;1999.90;999.90;;;17.90;99.90;;;;;;4918302;29;20419;-71
2023/07/01 00:43:11;;;;;;;1999.90;999.90;;;17.90;99.90;;;;;;4918922;29;20051;-71
2023/07/01 00:45:36;;;;;;;1999.90;999.90;;;17.90;99.90;;;;;;4919996;29;20508;-71
2023/07/01 00:48:02;;;;;;;1999.90;999.90;;;17.90;99.90;;;;;;4919873;29;20405;-71
2023/07/01 00:50:28;;;;;;;1999.90;999.90;;;17.90;99.90;;;;;;4919529;29;20127;-69
2023/07/01 00:52:54;;;;;;;1999.90;999.90;;;17.90;99.90;;;;;;4919817;29;20044;-70
2023/07/01 00:55:19;;;;;;;1999.90;999.90;;;17.90;99.90;;;;;;4918632;29;20052;-69
2023/07/01 00:57:45;;;;;;;1999.90;999.90;;;17.90;99.90;;;;;;4902752;29;20083;-70
2023/07/01 01:00:12;;;;;;;1999.90;999.90;;;17.90;99.90;;;;;;4919761;29;20044;-69
2023/07/01 01:02:43;;;;;;;1999.90;999.90;;;17.90;99.90;;;;;;4918709;29;20099;-71
2023/07/01 01:05:15;;;;;;;1999.90;999.90;;;17.90;99.90;;;;;;4919555;29;20460;-71
2023/07/01 01:08:06;;;;;;;1999.90;999.90;;;17.90;99.90;;;;;;4919475;29;20083;-71
2023/07/01 01:10:33;;;;;;;1999.90;999.90;;;18.00;99.90;;;;;;4919608;29;20098;-71
2023/07/01 01:13:03;;;;;;;1999.90;999.90;;;17.90;99.90;;;;;;4918862;29;20087;-70
2023/07/01 01:15:28;;;;;;;1999.90;999.90;;;18.00;99.90;;;;;;4902729;29;20052;-70
2023/07/01 01:17:58;;;;;;;1999.90;999.90;;;18.00;99.90;;;;;;4917930;29;20080;-70
2023/07/01 01:20:25;;;;;;;1999.90;999.90;;;17.90;99.90;;;;;;4919188;29;20389;-70
2023/07/01 01:23:02;;;;;;;1999.90;999.90;;;18.00;99.90;;;;;;4918022;29;20522;-70
2023/07/01 01:25:39;;;;;;;1999.90;999.90;;;17.90;99.90;;;;;;4918221;29;20062;-70
2023/07/01 01:28:05;;;;;;;1999.90;999.90;;;17.90;99.90;;;;;;4919047;29;20584;-71
2023/07/01 01:30:32;;;;;;;1999.90;999.90;;;18.00;99.90;;;;;;4917715;29;20127;-71
2023/07/01 01:32:58;;;;;;;1999.90;999.90;;;18.00;99.90;;;;;;4917820;29;20131;-70
2023/07/01 01:35:24;;;;;;;1999.90;999.90;;;18.00;99.90;;;;;;4919122;29;20576;-71
2023/07/01 01:37:58;;;;;;;1999.90;999.90;;;18.00;99.90;;;;;;4917938;29;20127;-71
2023/07/01 01:40:56;;;;;;;1999.90;999.90;;;18.00;99.90;;;;;;4918983;29;20123;-70
2023/07/01 01:43:38;;;;;;;1999.90;999.90;;;18.00;99.90;;;;;;4902359;29;20417;-71
2023/07/01 01:46:07;;;;;;;1999.90;999.90;;;18.00;99.90;;;;;;4919350;29;20048;-71
2023/07/01 01:48:33;;;;;;;1999.90;999.90;;;18.00;99.90;;;;;;4918719;29;20100;-71
2023/07/01 01:51:01;;;;;;;1999.90;999.90;;;18.00;99.90;;;;;;4918686;29;20083;-70
2023/07/01 01:53:28;;;;;;;1999.90;999.90;;;18.00;99.90;;;;;;4918474;29;20400;-71
2023/07/01 01:55:54;;;;;;;1999.90;999.90;;;18.00;99.90;;;;;;4918529;29;20485;-71
2023/07/01 01:58:20;;;;;;;1999.90;999.90;;;18.00;99.90;;;;;;4918595;29;20504;-69
2023/07/01 02:00:47;;;;;;;1999.90;999.90;;;18.00;99.90;;;;;;4918529;29;20127;-71
2023/07/01 02:03:13;;;;;;;1999.90;999.90;;;18.00;99.90;;;;;;4918612;29;20177;-70
2023/07/01 02:05:39;;;;;;;1999.90;999.90;;;18.00;99.90;;;;;;4917328;29;20056;-71
2023/07/01 02:08:05;;;;;;;1999.90;999.90;;;17.90;99.90;;;;;;4918184;29;20052;-71
2023/07/01 02:10:32;;;;;;;1999.90;999.90;;;17.90;99.90;;;;;;4917724;29;20121;-70
2023/07/01 02:12:58;;;;;;;1999.90;999.90;;;17.90;99.90;;;;;;4916515;29;20115;-71
2023/07/01 02:15:24;;;;;;;1999.90;999.90;;;17.90;99.90;;;;;;4918295;29;20056;-70
2023/07/01 02:17:50;;;;;;;1999.90;999.90;;;17.90;99.90;;;;;;4901634;29;20492;-71
2023/07/01 02:20:16;;;;;;;1999.90;999.90;;;17.90;99.90;;;;;;4917267;29;20108;-72
2023/07/01 02:22:42;;;;;;;1999.90;999.90;;;17.80;99.90;;;;;;4918179;29;20492;-70
2023/07/01 02:25:08;;;;;;;1999.90;999.90;;;17.80;99.90;;;;;;4918165;29;20059;-70
2023/07/01 02:27:33;;;;;;;1999.90;999.90;;;17.70;99.90;;;;;;4918345;29;20466;-71
2023/07/01 02:29:59;;;;;;;1999.90;999.90;;;17.60;99.90;;;;;;4916993;29;20049;-69
2023/07/01 02:32:25;;;;;;;1999.90;999.90;;;17.50;99.90;;;;;;4918552;29;20060;-70
2023/07/01 02:34:51;;;;;;;1999.90;999.90;;;17.40;99.90;;;;;;4916715;29;20048;-69
2023/07/01 02:37:17;;;;;;;1999.90;999.90;;;17.30;99.90;;;;;;4917768;29;20056;-69
2023/07/01 02:39:45;;;;;;;1999.90;999.90;;;17.30;99.90;;;;;;4917982;29;20043;-69
2023/07/01 02:42:11;;;;;;;1999.90;999.90;;;17.20;99.90;;;;;;4916163;29;20048;-70
2023/07/01 02:44:37;;;;;;;1999.90;999.90;;;17.20;99.90;;;;;;4918034;29;20457;-69
2023/07/01 02:47:03;;;;;;;1999.90;999.90;;;17.10;99.90;;;;;;4916750;29;20048;-70
2023/07/01 02:49:29;;;;;;;1999.90;999.90;;;17.10;99.90;;;;;;4917305;29;20048;-70
2023/07/01 02:51:54;;;;;;;1999.90;999.90;;;17.10;99.90;;;;;;4916683;29;20054;-70
2023/07/01 02:54:20;;;;;;;1999.90;999.90;;;17.10;99.90;;;;;;4917951;29;20051;-70
2023/07/01 02:56:46;;;;;;;1999.90;999.90;;;17.00;99.90;;;;;;4917636;29;20059;-70
2023/07/01 02:59:11;;;;;;;1999.90;999.90;;;17.10;99.90;;;;;;4917620;29;20044;-70
2023/07/01 03:01:37;;;;;;;1999.90;999.90;;;17.00;99.90;;;;;;4917584;29;20409;-67
2023/07/01 03:04:06;;;;;;;1999.90;999.90;;;17.00;99.90;;;;;;4917420;29;20044;-67
2023/07/01 03:06:35;;;;;;;1999.90;999.90;;;17.00;99.90;;;;;;4917473;29;20052;-67
2023/07/01 03:09:03;;;;;;;1999.90;999.90;;;17.00;99.90;;;;;;4917634;29;20044;-68
2023/07/01 03:11:29;;;;;;;1999.90;999.90;;;17.00;99.90;;;;;;4916860;29;20138;-67
2023/07/01 03:13:55;;;;;;;1999.90;999.90;;;17.00;99.90;;;;;;4917219;29;20131;-67
2023/07/01 03:16:20;;;;;;;1999.90;999.90;;;17.00;99.90;;;;;;4916308;29;20100;-67
2023/07/01 03:18:46;;;;;;;1999.90;999.90;;;17.00;99.90;;;;;;4917084;29;20048;-66
2023/07/01 03:21:12;;;;;;;1999.90;999.90;;;17.00;99.90;;;;;;4916107;29;20063;-67
2023/07/01 03:23:37;;;;;;;1999.90;999.90;;;17.00;99.90;;;;;;4900445;29;20088;-67
2023/07/01 03:26:03;;;;;;;1999.90;999.90;;;16.90;99.90;;;;;;4916856;29;20553;-68
2023/07/01 03:28:29;;;;;;;1999.90;999.90;;;17.00;99.90;;;;;;4917147;29;20087;-68
2023/07/01 03:30:54;;;;;;;1999.90;999.90;;;17.00;99.90;;;;;;4915935;29;20091;-69
2023/07/01 03:33:20;;;;;;;1999.90;999.90;;;17.00;99.90;;;;;;4915799;29;20056;-68
2023/07/01 03:35:46;;;;;;;1999.90;999.90;;;17.00;99.90;;;;;;4916981;29;20059;-68
2023/07/01 03:38:13;;;;;;;1999.90;999.90;;;17.00;99.90;;;;;;4933019;29;20507;-68
2023/07/01 03:40:39;;;;;;;1999.90;999.90;;;17.00;99.90;;;;;;4935198;29;20480;-68
2023/07/01 03:43:05;;;;;;;1999.90;999.90;;;17.00;99.90;;;;;;4918717;29;20091;-68
2023/07/01 03:45:30;;;;;;;1999.90;999.90;;;17.00;99.90;;;;;;4934619;29;20143;-67
2023/07/01 03:47:56;;;;;;;1999.90;999.90;;;17.10;99.90;;;;;;4935851;29;20052;-70
2023/07/01 03:50:22;;;;;;;1999.90;999.90;;;17.10;99.90;;;;;;4935993;29;20106;-69
2023/07/01 03:52:47;;;;;;;1999.90;999.90;;;17.10;99.90;;;;;;4936025;29;20389;-69
2023/07/01 03:55:14;;;;;;;1999.90;999.90;;;17.10;99.90;;;;;;4935874;29;20407;-69
2023/07/01 03:57:40;;;;;;;1999.90;999.90;;;17.10;99.90;;;;;;4919146;29;20056;-69
2023/07/01 04:00:08;;;;;;;1999.90;999.90;;;17.10;99.90;;;;;;4935085;29;20055;-68
2023/07/01 04:02:37;;;;;;;1999.90;999.90;;;17.10;99.90;;;;;;4935664;29;20059;-70
2023/07/01 04:05:09;;;;;;;1999.90;999.90;;;17.10;99.90;;;;;;4936039;29;20055;-70
2023/07/01 04:07:43;;;;;;;1999.90;999.90;;;17.10;99.90;;;;;;4935448;29;20056;-67
2023/07/01 04:10:10;;;;;;;1999.90;999.90;;;17.10;99.90;;;;;;4934835;29;20400;-69
2023/07/01 04:12:37;;;;;;;1999.90;999.90;;;17.10;99.90;;;;;;4935224;29;20062;-69
2023/07/01 04:15:09;;;;;;;1999.90;999.90;;;17.10;99.90;;;;;;4935403;29;20058;-69
2023/07/01 04:17:50;;;;;;;1999.90;999.90;;;17.00;99.90;;;;;;4935937;29;20055;-69
2023/07/01 04:20:19;;;;;;;1999.90;999.90;;;17.00;99.90;;;;;;4935711;29;20048;-68
2023/07/01 04:22:45;;;;;;;1999.90;999.90;;;17.00;99.90;;;;;;4935001;29;20051;-70
2023/07/01 04:25:11;;;;;;;1999.90;999.90;;;17.00;99.90;;;;;;4935500;29;20044;-69
2023/07/01 04:27:37;;;;;;;1999.90;999.90;;;16.90;99.90;;;;;;4935477;29;20095;-69
2023/07/01 04:30:04;;;;;;;1999.90;999.90;;;16.90;99.90;;;;;;4935422;29;20051;-69
2023/07/01 04:32:30;;;;;;;1999.90;999.90;;;16.90;99.90;;;;;;4934204;29;20496;-68
2023/07/01 04:34:55;;;;;;;1999.90;999.90;;;16.90;99.90;;;;;;4934825;29;20052;-69
2023/07/01 04:37:21;;;;;;;1999.90;999.90;;;16.90;99.90;;;;;;4938179;29;20055;-69
2023/07/01 04:39:47;;;;;;;1999.90;999.90;;;16.90;99.90;;;;;;4939166;29;20079;-69
2023/07/01 04:42:13;;;;;;;1999.90;999.90;;;16.80;99.90;;;;;;4938327;29;20125;-70
2023/07/01 04:44:39;;;;;;;1999.90;999.90;;;16.80;99.90;;;;;;4939000;29;20107;-71
2023/07/01 04:47:04;;;;;;;1999.90;999.90;;;16.80;99.90;;;;;;4938147;29;20050;-69
2023/07/01 04:49:30;;;;;;;1999.90;999.90;;;16.80;99.90;;;;;;4938774;29;20492;-68
2023/07/01 04:51:56;;;;;;;1999.90;999.90;;;16.80;99.90;;;;;;4938783;29;20048;-68
2023/07/01 04:54:22;;;;;;;1999.90;999.90;;;16.80;99.90;;;;;;4906241;29;20051;-69
2023/07/01 04:56:48;;;;;;;1999.90;999.90;;;16.80;99.90;;;;;;4938721;29;20070;-68
2023/07/01 04:59:13;;;;;;;1999.90;999.90;;;16.80;99.90;;;;;;4938380;29;20047;-68
2023/07/01 05:01:39;;;;;;;1999.90;999.90;;;16.80;99.90;;;;;;4937846;29;20480;-68
2023/07/01 05:04:05;;;;;;;1999.90;999.90;;;16.80;99.90;;;;;;4938526;29;20469;-69
2023/07/01 05:06:32;;;;;;;1999.90;999.90;;;16.70;99.90;;;;;;4938904;29;20063;-69
2023/07/01 05:08:58;;;;;;;1999.90;999.90;;;16.80;99.90;;;;;;4938494;29;20054;-69
2023/07/01 05:11:24;;;;;;;1999.90;999.90;;;16.70;99.90;;;;;;4938006;29;20043;-69
2023/07/01 05:13:50;;;;;;;1999.90;999.90;;;16.80;99.90;;;;;;4938441;29;20044;-69
2023/07/01 05:16:15;;;;;;;1999.90;999.90;;;16.80;99.90;;;;;;4938563;29;20416;-69
2023/07/01 05:18:41;;;;;;;1999.90;999.90;;;16.80;99.90;;;;;;4937816;29;20561;-69
2023/07/01 05:21:07;;;;;;;1999.90;999.90;;;16.80;99.90;;;;;;4942441;29;20156;-69
2023/07/01 05:23:33;;;;;;;1999.90;999.90;;;16.80;99.90;;;;;;4938714;29;20043;-69
2023/07/01 05:25:58;;;;;;;1999.90;999.90;;;16.80;99.90;;;;;;4921576;29;20072;-69
2023/07/01 05:28:24;;;;;;;1999.90;999.90;;;16.80;99.90;;;;;;4937214;29;20052;-69
2023/07/01 05:30:50;;;;;;;1999.90;999.90;;;16.80;99.90;;;;;;4937105;29;20050;-69
2023/07/01 05:33:16;;;;;;;1999.90;999.90;;;16.80;99.90;;;;;;4921064;29;20523;-69
2023/07/01 05:35:41;;;;;;;1999.90;999.90;;;16.80;99.90;;;;;;4938038;29;20055;-69
2023/07/01 05:38:11;;;;;;;1999.90;999.90;;;16.70;99.90;;;;;;4937898;29;20051;-70
2023/07/01 05:40:38;;;;;;;1999.90;999.90;;;16.70;99.90;;;;;;4937781;29;20145;-68
2023/07/01 05:43:04;;;;;;;1999.90;999.90;;;16.70;99.90;;;;;;4937487;29;20126;-69
2023/07/01 05:45:30;;;;;;;1999.90;999.90;;;16.70;99.90;;;;;;4938064;29;20055;-69
2023/07/01 05:47:56;;;;;;;1999.90;999.90;;;16.70;99.90;;;;;;4936125;29;20044;-69
2023/07/01 05:50:22;;;;;;;1999.90;999.90;;;16.70;99.90;;;;;;4937694;29;20048;-68
2023/07/01 05:52:48;;;;;;;1999.90;999.90;;;16.70;99.90;;;;;;4920851;29;20055;-70
2023/07/01 05:55:13;;;;;;;1999.90;999.90;;;16.70;99.90;;;;;;4936271;29;20117;-69
2023/07/01 05:57:39;;;;;;;1999.90;999.90;;;16.70;99.90;;;;;;4936725;29;20054;-69
2023/07/01 06:00:07;;;;;;;1999.90;999.90;;;16.70;99.90;;;;;;4936602;29;20054;-69
2023/07/01 06:02:33;;;;;;;1999.90;999.90;;;16.70;99.90;;;;;;4936624;29;20090;-68
2023/07/01 06:04:58;;;;;;;1999.90;999.90;;;16.80;99.90;;;;;;4937475;29;20051;-68
2023/07/01 06:07:24;;;;;;;1999.90;999.90;;;16.80;99.90;;;;;;4937430;29;20076;-69
2023/07/01 06:09:50;;;;;;;1999.90;999.90;;;16.80;99.90;;;;;;4937143;29;20159;-69
2023/07/01 06:12:16;;;;;;;1999.90;999.90;;;16.80;99.90;;;;;;4935957;29;20051;-69
2023/07/01 06:14:42;;;;;;;1999.90;999.90;;;16.90;99.90;;;;;;4937459;29;20059;-69
2023/07/01 06:17:08;;;;;;;1999.90;999.90;;;16.90;99.90;;;;;;4936625;29;20047;-68
2023/07/01 06:19:34;;;;;;;1999.90;999.90;;;16.90;99.90;;;;;;4937303;29;20044;-69
2023/07/01 06:22:00;;;;;;;1999.90;999.90;;;16.90;99.90;;;;;;4937279;29;20109;-69
2023/07/01 06:24:25;;;;;;;1999.90;999.90;;;17.70;99.90;;;;;;4920462;29;20055;-69
2023/07/01 06:26:51;;;;;;;1999.90;999.90;;;16.90;99.90;;;;;;4921238;29;20056;-69
2023/07/01 06:29:17;;;;;;;1999.90;999.90;;;17.00;99.90;;;;;;4937273;29;20130;-70
2023/07/01 06:31:42;;;;;;;1999.90;999.90;;;17.00;99.90;;;;;;4937224;29;20055;-68
2023/07/01 06:34:15;;;;;;;1999.90;999.90;;;17.00;99.90;;;;;;4937018;29;20047;-68
2023/07/01 06:36:41;;;;;;;1999.90;999.90;;;17.00;99.90;;;;;;4935917;29;20087;-69
2023/07/01 06:39:06;;;;;;;1999.90;999.90;;;17.00;99.90;;;;;;4935670;29;20091;-68
2023/07/01 06:41:32;;;;;;;1999.90;999.90;;;17.00;99.90;;;;;;4936565;29;20094;-69
2023/07/01 06:43:58;;;;;;;1999.90;999.90;;;17.00;99.90;;;;;;4937103;29;20098;-69
2023/07/01 06:46:24;;;;;;;1999.90;999.90;;;17.00;99.90;;;;;;4936897;29;20051;-69
2023/07/01 06:48:49;;;;;;;1999.90;999.90;;;17.00;99.90;;;;;;4936630;29;20127;-68
2023/07/01 06:51:15;;;;;;;1999.90;999.90;;;17.00;99.90;;;;;;4936492;29;20110;-69
2023/07/01 06:53:41;;;;;;;1999.90;999.90;;;17.10;99.90;;;;;;4936506;29;20050;-69
2023/07/01 06:56:07;;;;;;;1999.90;999.90;;;17.10;99.90;;;;;;4936693;29;20142;-69
2023/07/01 06:58:33;;;;;;;1999.90;999.90;;;17.10;99.90;;;;;;4919334;29;20051;-70
2023/07/01 07:00:59;;;;;;;1999.90;999.90;;;17.10;99.90;;;;;;4935047;29;20054;-70
2023/07/01 07:03:24;;;;;;;1999.90;999.90;;;17.10;99.90;;;;;;4936468;29;20055;-70
2023/07/01 07:05:52;;;;;;;1999.90;999.90;;;17.10;99.90;;;;;;4935814;29;20054;-70
2023/07/01 07:08:18;;;;;;;1999.90;999.90;;;17.10;99.90;;;;;;4936333;29;20062;-70
2023/07/01 07:10:44;;;;;;;1999.90;999.90;;;17.00;99.90;;;;;;4936903;29;20048;-70
2023/07/01 07:13:10;;;;;;;1999.90;999.90;;;17.00;99.90;;;;;;4936086;29;20404;-70
2023/07/01 07:15:35;;;;;;;1999.90;999.90;;;16.90;99.90;;;;;;4936468;29;20052;-70
2023/07/01 07:18:01;;;;;;;1999.90;999.90;;;16.90;99.90;;;;;;4919739;29;20048;-70
2023/07/01 07:20:27;;;;;;;1999.90;999.90;;;16.90;99.90;;;;;;4919501;29;20047;-70
2023/07/01 07:22:53;;;;;;;1999.90;999.90;;;16.90;99.90;;;;;;4936381;29;20083;-71
2023/07/01 07:25:19;;;;;;;1999.90;999.90;;;16.90;99.90;;;;;;4935434;29;20145;-70
2023/07/01 07:27:45;;;;;;;1999.90;999.90;;;17.00;99.90;;;;;;4936331;29;20063;-70
2023/07/01 07:30:14;;;;;;;1999.90;999.90;;;17.00;99.90;;;;;;4936345;29;20130;-69
2023/07/01 07:32:41;;;;;;;1999.90;999.90;;;17.00;99.90;;;;;;4936353;29;20095;-70
2023/07/01 07:35:07;;;;;;;1999.90;999.90;;;17.00;99.90;;;;;;4940118;29;20047;-70
2023/07/01 07:37:35;;;;;;;1999.90;999.90;;;17.10;99.90;;;;;;4936084;29;20143;-70
2023/07/01 07:40:05;;;;;;;1999.90;999.90;;;17.00;99.90;;;;;;4936210;29;20051;-70
2023/07/01 07:42:31;;;;;;;1999.90;999.90;;;17.10;99.90;;;;;;4935631;29;20052;-69
2023/07/01 07:44:56;;;;;;;1999.90;999.90;;;17.10;99.90;;;;;;4935178;29;20039;-68
2023/07/01 07:47:22;;;;;;;1999.90;999.90;;;17.10;99.90;;;;;;4936213;29;20043;-68
2023/07/01 07:49:48;;;;;;;1999.90;999.90;;;17.00;99.90;;;;;;4936027;29;20044;-68
2023/07/01 07:52:13;;;;;;;1999.90;999.90;;;17.10;99.90;;;;;;4935856;29;20127;-68
2023/07/01 07:54:41;;;;;;;1999.90;999.90;;;17.10;99.90;;;;;;4935003;29;20052;-70
2023/07/01 07:57:07;;;;;;;1999.90;999.90;;;17.00;99.90;;;;;;4927721;29;20052;-66
2023/07/01 07:59:33;;;;;;;1999.90;999.90;;;17.10;99.90;;;;;;4916959;29;20044;-67
2023/07/01 08:02:00;;;;;;;1999.90;999.90;;;17.00;99.90;;;;;;4900260;29;20075;-68
2023/07/01 08:04:26;;;;;;;1999.90;999.90;;;17.10;99.90;;;;;;4900022;29;20060;-67
2023/07/01 08:06:52;;;;;;;1999.90;999.90;;;17.10;99.90;;;;;;4916833;29;20048;-67
2023/07/01 08:09:19;;;;;;;1999.90;999.90;;;17.10;99.90;;;;;;4916501;29;20103;-68
2023/07/01 08:11:45;;;;;;;1999.90;999.90;;;17.10;99.90;;;;;;4919493;29;20044;-68
2023/07/01 08:14:10;;;;;;;1999.90;999.90;;;17.10;99.90;;;;;;4919398;29;20397;-69
2023/07/01 08:16:37;;;;;;;1999.90;999.90;;;17.20;99.90;;;;;;4920653;29;20059;-69
2023/07/01 08:19:03;;;;;;;1999.90;999.90;;;17.20;99.90;;;;;;4920446;29;20572;-69
2023/07/01 08:21:29;;;;;;;1999.90;999.90;;;17.20;99.90;;;;;;4920353;29;20091;-68
2023/07/01 08:23:55;;;;;;;1999.90;999.90;;;17.30;99.90;;;;;;4920339;29;20048;-69
2023/07/01 08:26:21;;;;;;;1999.90;999.90;;;17.30;99.90;;;;;;4920628;29;20044;-69
2023/07/01 08:28:46;;;;;;;1999.90;999.90;;;17.30;99.90;;;;;;4919396;29;20052;-69
2023/07/01 08:31:12;;;;;;;1999.90;999.90;;;17.40;99.90;;;;;;4920064;29;20079;-69
2023/07/01 08:33:38;;;;;;;1999.90;999.90;;;17.30;99.90;;;;;;4919552;29;20064;-69
2023/07/01 08:36:05;;;;;;;1999.90;999.90;;;17.40;99.90;;;;;;4918821;29;20056;-69
2023/07/01 08:38:31;;;;;;;1999.90;999.90;;;17.40;99.90;;;;;;4919168;29;20520;-68
2023/07/01 08:41:03;;;;;;;1999.90;999.90;;;17.40;99.90;;;;;;4919132;29;20048;-67
2023/07/01 08:43:30;;;;;;;1999.90;999.90;;;17.40;99.90;;;;;;4919949;29;20238;-69
2023/07/01 08:46:08;;;;;;;1999.90;999.90;;;17.40;99.90;;;;;;4903353;29;20513;-69
2023/07/01 08:48:34;;;;;;;1999.90;999.90;;;17.50;99.90;;;;;;4919880;29;20048;-69
2023/07/01 08:51:14;;;;;;;1999.90;999.90;;;17.50;99.90;;;;;;4919811;29;20548;-68
2023/07/01 08:53:42;;;;;;;1999.90;999.90;;;17.40;99.90;;;;;;4919208;29;20504;-69
2023/07/01 08:56:08;;;;;;;1999.90;999.90;;;17.50;99.90;;;;;;4903303;29;20052;-69
2023/07/01 08:58:34;;;;;;;1999.90;999.90;;;17.50;99.90;;;;;;4919693;29;20127;-69
2023/07/01 09:01:00;;;;;;;1999.90;999.90;;;17.50;99.90;;;;;;4919671;29;20082;-68
2023/07/01 09:03:29;;;;;;;1999.90;999.90;;;17.50;99.90;;;;;;4921455;29;20478;-69
2023/07/01 09:05:55;;;;;;;1999.90;999.90;;;17.50;99.90;;;;;;4909717;29;20126;-69
2023/07/01 09:08:20;;;;;;;1999.90;999.90;;;17.50;99.90;;;;;;4910794;29;20132;-70
2023/07/01 09:10:46;;;;;;;1999.90;999.90;;;17.60;99.90;;;;;;4907559;29;20045;-69
2023/07/01 09:13:13;;;;;;;1999.90;999.90;;;17.60;99.90;;;;;;4909419;29;20052;-69
2023/07/01 09:15:49;;;;;;;1999.90;999.90;;;17.60;99.90;;;;;;4909223;29;20092;-69
2023/07/01 09:18:24;;;;;;;1999.90;999.90;;;17.60;99.90;;;;;;4908384;29;20060;-70
2023/07/01 09:20:54;;;;;;;1999.90;999.90;;;17.60;99.90;;;;;;4900488;29;20040;-69
2023/07/01 09:23:31;;;;;;;1999.90;999.90;;;17.60;99.90;;;;;;4899435;29;20059;-69
2023/07/01 09:26:14;;;;;;;1999.90;999.90;;;17.70;99.90;;;;;;4899493;29;20132;-70
2023/07/01 09:28:53;;;;;;;1999.90;999.90;;;17.70;99.90;;;;;;4899565;29;20056;-68
2023/07/01 09:31:19;;;;;;;1999.90;999.90;;;17.70;99.90;;;;;;4900321;29;20048;-69
2023/07/01 09:34:08;;;;;;;1999.90;999.90;;;17.70;99.90;;;;;;4899275;29;20052;-70
2023/07/01 09:36:34;;;;;;;1999.90;999.90;;;17.70;99.90;;;;;;4900324;29;20091;-68
2023/07/01 09:39:01;;;;;;;1999.90;999.90;;;17.70;99.90;;;;;;4902761;29;20047;-69
2023/07/01 09:41:27;;;;;;;1999.90;999.90;;;17.70;99.90;;;;;;4936831;29;20083;-69
2023/07/01 09:43:58;;;;;;;1999.90;999.90;;;17.80;99.90;;;;;;4921042;29;20048;-69
2023/07/01 09:46:31;;;;;;;1999.90;999.90;;;17.80;99.90;;;;;;4901967;29;20139;-68
2023/07/01 09:48:57;;;;;;;1999.90;999.90;;;17.80;99.90;;;;;;4917957;29;20103;-69
2023/07/01 09:51:25;;;;;;;1999.90;999.90;;;17.80;99.90;;;;;;4918420;29;20052;-69
2023/07/01 09:53:51;;;;;;;1999.90;999.90;;;17.80;99.90;;;;;;4918725;29;20123;-69
2023/07/01 09:56:19;;;;;;;1999.90;999.90;;;17.80;99.90;;;;;;4918942;29;20048;-69
2023/07/01 09:58:46;;;;;;;1999.90;999.90;;;17.80;99.90;;;;;;4914033;29;20086;-70
2023/07/01 10:01:13;;;;;;;1999.90;999.90;;;17.80;99.90;;;;;;4935186;29;20194;-70
2023/07/01 10:03:41;;;;;;;1999.90;999.90;;;17.90;99.90;;;;;;4928630;29;20115;-70
2023/07/01 10:06:07;;;;;;;1999.90;999.90;;;17.90;99.90;;;;;;4916116;29;20082;-69
2023/07/01 10:08:33;;;;;;;1999.90;999.90;;;17.90;99.90;;;;;;4915817;29;20119;-68
2023/07/01 10:11:09;;;;;;;1999.90;999.90;;;18.00;99.90;;;;;;4914453;29;20131;-69
2023/07/01 10:13:40;;;;;;;1999.90;999.90;;;18.00;99.90;;;;;;4915220;29;20123;-68
2023/07/01 10:16:07;;;;;;;1999.90;999.90;;;18.00;99.90;;;;;;4915807;29;20058;-69
2023/07/01 10:18:33;;;;;;;1999.90;999.90;;;18.10;99.90;;;;;;4914478;29;20469;-69
2023/07/01 10:21:24;;;;;;;1999.90;999.90;;;18.10;99.90;;;;;;4915921;29;20134;-69
2023/07/01 10:23:55;;;;;;;1999.90;999.90;;;18.20;99.90;;;;;;4915323;29;20103;-68
2023/07/01 10:26:43;;;;;;;1999.90;999.90;;;18.20;99.90;;;;;;4915515;29;20056;-69
2023/07/01 10:29:27;;;;;;;1999.90;999.90;;;18.20;99.90;;;;;;4915482;29;20044;-69
2023/07/01 10:32:08;;;;;;;1999.90;999.90;;;18.30;99.90;;;;;;4915169;29;20056;-69
2023/07/01 10:34:52;;;;;;;1999.90;999.90;;;18.30;99.90;;;;;;4914952;29;20489;-69
2023/07/01 10:37:19;;;;;;;1999.90;999.90;;;18.30;99.90;;;;;;4915274;29;20051;-68
2023/07/01 10:39:44;;;;;;;1999.90;999.90;;;18.30;99.90;;;;;;4915424;29;20056;-69
2023/07/01 10:42:33;;;;;;;1999.90;999.90;;;18.30;99.90;;;;;;4914671;29;20087;-69
2023/07/01 10:45:11;;;;;;;1999.90;999.90;;;18.40;99.90;;;;;;4915635;29;20075;-69
2023/07/01 10:47:43;;;;;;;1999.90;999.90;;;18.40;99.90;;;;;;4915486;29;20059;-68
2023/07/01 10:50:18;;;;;;;1999.90;999.90;;;18.50;99.90;;;;;;4914843;29;20115;-69
2023/07/01 10:52:56;;;;;;;1999.90;999.90;;;18.50;99.90;;;;;;4909368;29;20076;-69
2023/07/01 10:55:44;;;;;;;1999.90;999.90;;;18.50;99.90;;;;;;4916709;29;20052;-69
2023/07/01 10:58:23;;;;;;;1999.90;999.90;;;18.50;99.90;;;;;;4918194;29;20052;-68
2023/07/01 11:00:53;;;;;;;1999.90;999.90;;;18.50;99.90;;;;;;4918137;29;20048;-69
2023/07/01 11:03:37;;;;;;;1999.90;999.90;;;18.60;99.90;;;;;;4918032;29;20060;-69
2023/07/01 11:06:10;;;;;;;1999.90;999.90;;;18.60;99.90;;;;;;4916560;29;20107;-69
2023/07/01 11:08:50;;;;;;;1999.90;999.90;;;18.60;99.90;;;;;;4917353;29;20111;-69
2023/07/01 11:11:27;;;;;;;1999.90;999.90;;;18.60;99.90;;;;;;4917444;29;20048;-68
2023/07/01 11:14:02;;;;;;;1999.90;999.90;;;18.70;99.90;;;;;;4917110;29;20059;-69
2023/07/01 11:16:29;;;;;;;1999.90;999.90;;;18.70;99.90;;;;;;4916549;29;20048;-68
2023/07/01 11:18:57;;;;;;;1999.90;999.90;;;18.60;99.90;;;;;;4917540;29;20052;-69
2023/07/01 11:21:28;;;;;;;1999.90;999.90;;;18.60;99.90;;;;;;4917426;29;20055;-70
2023/07/01 11:23:56;;;;;;;1999.90;999.90;;;18.60;99.90;;;;;;4917712;29;20043;-71
2023/07/01 11:26:24;;;;;;;1999.90;999.90;;;18.60;99.90;;;;;;4917415;29;20044;-72
2023/07/01 11:28:50;;;;;;;1999.90;999.90;;;18.60;99.90;;;;;;4917143;29;20051;-71
2023/07/01 11:31:18;;;;;;;1999.90;999.90;;;18.50;99.90;;;;;;4916642;29;20040;-71
2023/07/01 11:33:46;;;;;;;1999.90;999.90;;;18.50;99.90;;;;;;4913818;29;20056;-71
2023/07/01 11:36:17;;;;;;;1999.90;999.90;;;18.50;99.90;;;;;;4915293;29;20067;-73
2023/07/01 11:38:47;;;;;;;1999.90;999.90;;;18.40;99.90;;;;;;4917098;29;20111;-73
2023/07/01 11:41:16;;;;;;;1999.90;999.90;;;18.40;99.90;;;;;;4917105;29;20500;-74
2023/07/01 11:43:41;;;;;;;1999.90;999.90;;;18.40;99.90;;;;;;4914864;29;20067;-74
2023/07/01 11:46:09;;;;;;;1999.90;999.90;;;18.40;99.90;;;;;;4926335;29;20489;-75
2023/07/01 11:48:35;;;;;;;1999.90;999.90;;;18.40;99.90;;;;;;4915473;29;20048;-74
2023/07/01 11:51:00;;;;;;;1999.90;999.90;;;18.40;99.90;;;;;;4915912;29;20129;-75
2023/07/01 11:53:27;;;;;;;1999.90;999.90;;;18.40;99.90;;;;;;4915440;29;20048;-75
2023/07/01 11:55:56;;;;;;;1999.90;999.90;;;18.40;99.90;;;;;;4916956;29;20059;-74
2023/07/01 11:58:32;;;;;;;1999.90;999.90;;;18.40;99.90;;;;;;4916459;29;20044;-74
2023/07/01 12:00:58;;;;;;;1999.90;999.90;;;18.40;99.90;;;;;;4917665;29;20044;-74
2023/07/01 12:03:30;;;;;;;1999.90;999.90;;;18.40;99.90;;;;;;4917925;29;20052;-73